Latest Weather Observations for Ernabella/Pukatja

IDS60801

Issued at 11:31 pm CST Sunday 30 August 2015 (issued every 30 minutes, with the page automatically refreshed every 10 minutes)

About weather observations | Map of weather stations | Latest weather observations for SA | Other Formats
Station Details ID: 016097 Name: PUKATJA Lat: -26.26 Lon: 132.18 Height: 703.2 m
Data from the previous 72 hours. | See also: Recent months at Ernabella/Pukatja
Date/Time
CST
Temp
°C
App
Temp
°C
Dew
Point
Rel
Hum
%
Delta-T
°C
Wind Press
QNH
hPa
Press
MSL
hPa
Rain
since 9 am
mm
Dir
 
Spd
km/h
Gust
km/h
Spd
kts
Gust
kts
30/11:30pm 18.8 14.8 0.4 29 8.4 SE 11 15 6 8 1021.7 - 0.0
30/11:00pm 18.8 14.4 0.4 29 8.4 ESE 13 19 7 10 1021.1 - 0.0
30/10:30pm 18.4 14.8 0.5 30 8.2 ENE 9 11 5 6 1021.3 - 0.0
30/10:00pm 19.3 15.3 0.8 29 8.6 E 11 15 6 8 1021.2 - 0.0
30/09:30pm 18.2 16.2 2.1 34 7.6 E 2 11 1 6 1020.8 - 0.0
30/09:00pm 17.7 14.9 2.1 35 7.3 E 6 7 3 4 1020.4 1019.4 0.0
30/08:30pm 18.2 15.2 2.1 34 7.6 ENE 7 9 4 5 1020.2 - 0.0
30/08:00pm 18.4 15.4 1.9 33 7.8 NE 7 9 4 5 1019.9 - 0.0
30/07:30pm 20.0 17.9 1.9 30 8.6 W 2 6 1 3 1019.9 - 0.0
30/07:00pm 20.8 17.3 1.1 27 9.3 S 9 15 5 8 1019.6 - 0.0
30/06:30pm 20.9 17.9 0.7 26 9.5 E 6 7 3 4 1019.5 - 0.0
30/06:00pm 21.7 19.4 0.3 24 10.0 WNW 2 6 1 3 1019.6 1018.6 0.0
30/05:30pm 22.2 18.5 0.1 23 10.3 W 9 15 5 8 1019.7 - 0.0
30/05:00pm 22.7 18.2 -0.1 22 10.7 W 13 20 7 11 1019.8 - 0.0
30/04:30pm 23.1 19.0 -0.4 21 11.0 W 11 17 6 9 1019.6 - 0.0
30/04:00pm 22.8 18.3 0.0 22 10.7 WNW 13 24 7 13 1019.5 - 0.0
30/03:30pm 23.0 18.9 -0.5 21 10.9 WNW 11 17 6 9 1019.5 - 0.0
30/03:00pm 22.9 19.5 -0.6 21 10.9 NNW 7 17 4 9 1019.6 1018.6 0.0
30/02:30pm 22.5 18.3 -0.9 21 10.8 N 11 17 6 9 1019.8 - 0.0
30/02:00pm 22.3 17.7 -1.1 21 10.7 WNW 13 19 7 10 1020.2 - 0.0
30/01:30pm 23.6 19.0 -1.3 19 11.5 WNW 13 24 7 13 1020.4 - 0.0
30/01:00pm 22.5 18.2 -1.6 20 10.9 NNE 11 20 6 11 1020.8 - 0.0
30/12:30pm 22.3 17.5 -2.4 19 11.0 N 13 20 7 11 1021.3 - 0.0
30/12:00pm 20.8 15.0 -1.7 22 10.0 NNE 19 24 10 13 1021.9 1020.9 0.0
30/11:30am 19.4 14.3 -2.2 23 9.4 N 15 24 8 13 1022.4 - 0.0
30/11:00am 18.4 13.2 -2.5 24 9.0 N 15 24 8 13 1023.3 - 0.0
30/10:30am 17.4 11.3 -2.3 26 8.4 NNE 20 26 11 14 1023.3 - 0.0
30/10:00am 17.2 11.6 -3.0 25 8.5 N 17 26 9 14 1023.6 - 0.0
30/09:30am 15.8 10.2 -2.6 28 7.7 NNE 17 24 9 13 1023.6 - 0.0
30/09:00am 13.2 7.0 -3.5 31 6.7 NNE 20 33 11 18 1023.2 1022.2 0.0
30/08:30am 12.8 6.7 -3.5 32 6.5 NNE 19 26 10 14 1023.2 - 0.0
30/08:00am 12.9 7.6 -3.8 31 6.6 N 15 20 8 11 1023.2 - 0.0
30/07:30am 12.9 8.7 -3.8 31 6.6 NNE 9 17 5 9 1022.9 - 0.0
30/07:00am 12.1 7.1 -4.1 32 6.3 N 13 20 7 11 1022.8 - 0.0
30/06:30am 12.1 6.7 -4.1 32 6.3 N 15 24 8 13 1022.3 - 0.0
30/06:00am 12.2 6.9 -4.0 32 6.3 NNE 15 20 8 11 1021.9 1020.9 0.0
30/05:30am 12.0 6.6 -4.2 32 6.3 NNE 15 20 8 11 1021.8 - 0.0
30/05:00am 11.8 6.5 -3.5 34 6.0 N 15 20 8 11 1022.0 - 0.0
30/04:30am 11.3 7.2 -2.8 37 5.6 N 9 13 5 7 1021.8 - 0.0
30/04:00am 10.5 6.9 -1.9 42 5.0 NNE 7 11 4 6 1021.9 - 0.0
30/03:30am 9.9 6.4 -1.2 46 4.5 E 7 9 4 5 1022.0 - 0.0
30/03:00am 10.3 6.5 -0.8 46 4.6 ENE 9 11 5 6 1022.0 1021.0 0.0
30/02:30am 10.3 6.9 -0.5 47 4.5 E 7 11 4 6 1022.4 - 0.0
30/02:00am 10.5 6.3 -0.6 46 4.6 E 11 15 6 8 1022.3 - 0.0
30/01:30am 11.3 6.4 -0.5 44 5.0 E 15 17 8 9 1022.7 - 0.0
30/01:00am 11.6 7.1 -0.2 44 5.0 E 13 15 7 8 1022.9 - 0.0
30/12:30am 11.7 7.2 -0.1 44 5.0 E 13 15 7 8 1023.1 - 0.0
30/12:00am 11.7 7.2 -0.1 44 5.0 E 13 15 7 8 1023.2 1022.2 0.0
 
Date/Time
CST
Temp
°C
App
Temp
°C
Dew
Point
Rel
Hum
%
Delta-T
°C
Wind Press
QNH
hPa
Press
MSL
hPa
Rain
since 9 am
mm
Dir
 
Spd
km/h
Gust
km/h
Spd
kts
Gust
kts
29/11:30pm 12.3 7.5 0.1 43 5.2 E 15 17 8 9 1023.3 - 0.0
29/11:00pm 12.3 7.9 0.1 43 5.2 E 13 15 7 8 1023.5 - 0.0
29/10:30pm 12.2 7.4 0.0 43 5.2 E 15 17 8 9 1023.6 - 0.0
29/10:00pm 12.8 8.4 0.2 42 5.5 E 13 15 7 8 1023.6 - 0.0
29/09:30pm 13.2 8.4 0.3 41 5.6 ENE 15 15 8 8 1023.4 - 0.0
29/09:00pm 13.3 9.2 0.0 40 5.7 ENE 11 13 6 7 1023.3 1022.3 0.0
29/08:30pm 14.3 10.1 -0.6 36 6.4 ENE 11 11 6 6 1022.8 - 0.0
29/08:00pm 15.6 11.1 -0.2 34 7.0 E 13 15 7 8 1022.3 - 0.0
29/07:30pm 16.1 12.4 -0.2 33 7.2 ENE 9 11 5 6 1022.0 - 0.0
29/07:00pm 16.5 12.7 -0.7 31 7.6 NE 9 11 5 6 1021.7 - 0.0
29/06:30pm 18.6 14.9 -0.2 28 8.5 NNE 9 11 5 6 1021.2 - 0.0
29/06:00pm 20.3 16.2 -0.3 25 9.4 NE 11 17 6 9 1020.9 1019.9 0.0
29/05:30pm 21.0 16.9 -0.3 24 9.8 NE 11 15 6 8 1020.8 - 0.0
29/05:00pm 21.3 18.0 -0.1 24 9.9 NE 7 17 4 9 1020.8 - 0.0
29/04:30pm 21.8 18.1 -0.2 23 10.2 SSE 9 19 5 10 1020.9 - 0.0
29/04:00pm 21.6 17.9 0.2 24 10.0 W 9 15 5 8 1021.0 - 0.0
29/03:30pm 21.4 17.3 0.0 24 9.9 N 11 19 6 10 1021.1 - 0.0
29/03:00pm 21.4 16.7 0.6 25 9.7 ENE 15 20 8 11 1021.6 1020.5 0.0
29/02:30pm 20.6 16.1 -0.1 25 9.5 NNE 13 19 7 10 1021.9 - 0.0
29/02:00pm 20.8 16.8 0.6 26 9.4 N 11 20 6 11 1022.2 - 0.0
29/01:30pm 20.1 16.1 0.5 27 9.1 NNW 11 20 6 11 1022.6 - 0.0
29/01:00pm 19.8 15.5 0.8 28 8.8 NE 13 22 7 12 1023.1 - 0.0
29/12:30pm 18.7 13.9 0.3 29 8.4 NNE 15 20 8 11 1023.7 - 0.0
29/12:00pm 18.1 13.7 0.3 30 8.1 NNE 13 19 7 10 1024.3 1023.4 0.0
29/11:30am 17.5 12.6 -0.2 30 7.9 N 15 22 8 12 1024.7 - 0.0
29/11:00am 16.5 11.6 -0.7 31 7.6 NNE 15 22 8 12 1025.0 - 0.0
29/10:30am 16.1 10.4 -1.0 31 7.4 NNE 19 24 10 13 1025.0 - 0.0
29/10:00am 15.4 9.7 -0.8 33 7.0 ENE 19 26 10 14 1025.2 - 0.0
29/09:30am 14.1 8.4 -1.1 35 6.5 NE 19 22 10 12 1025.1 - 0.0
29/09:00am 13.8 8.1 -1.0 36 6.3 NE 19 24 10 13 1024.9 1023.9 0.0
29/08:30am 13.0 8.8 -1.0 38 5.9 ENE 11 17 6 9 1024.8 - 0.0
29/08:00am 10.6 7.2 -0.8 45 4.7 E 7 9 4 5 1024.4 - 0.0
29/07:30am 9.0 5.2 -0.6 51 3.9 ENE 9 11 5 6 1024.1 - 0.0
29/07:00am 7.3 3.5 -1.1 55 3.3 ENE 9 11 5 6 1023.8 - 0.0
29/06:30am 7.6 3.4 -0.8 55 3.4 NE 11 15 6 8 1023.5 - 0.0
29/06:00am 7.9 3.7 -0.8 54 3.5 NE 11 13 6 7 1023.3 1022.3 0.0
29/05:30am 7.4 3.6 -1.0 55 3.4 ENE 9 11 5 6 1023.1 - 0.0
29/05:00am 7.7 4.2 -1.0 54 3.5 ENE 7 9 4 5 1022.9 - 0.0
29/04:30am 8.1 4.3 -0.6 54 3.5 E 9 9 5 5 1022.9 - 0.0
29/04:00am 7.8 4.0 -0.9 54 3.5 E 9 11 5 6 1023.2 - 0.0
29/03:30am 8.0 4.2 -0.5 55 3.5 E 9 11 5 6 1023.2 - 0.0
29/03:00am 8.0 4.2 -0.5 55 3.4 E 9 11 5 6 1023.4 1022.4 0.0
29/02:30am 8.1 4.3 -0.4 55 3.5 E 9 11 5 6 1023.5 - 0.0
29/02:00am 8.7 5.0 -0.3 53 3.7 E 9 9 5 5 1023.8 - 0.0
29/01:30am 8.4 4.7 -0.1 55 3.5 E 9 13 5 7 1023.9 - 0.0
29/01:00am 8.3 5.0 0.1 56 3.4 E 7 11 4 6 1024.2 - 0.0
29/12:30am 8.5 5.2 0.0 55 3.5 E 7 9 4 5 1024.3 - 0.0
29/12:00am 9.2 5.9 0.4 54 3.7 NE 7 9 4 5 1024.4 1023.5 0.0
 
Date/Time
CST
Temp
°C
App
Temp
°C
Dew
Point
Rel
Hum
%
Delta-T
°C
Wind Press
QNH
hPa
Press
MSL
hPa
Rain
since 9 am
mm
Dir
 
Spd
km/h
Gust
km/h
Spd
kts
Gust
kts
28/11:30pm 10.4 6.4 0.2 49 4.3 E 11 13 6 7 1024.4 - 0.0
28/11:00pm 10.2 6.2 0.3 50 4.2 E 11 13 6 7 1024.6 - 0.0
28/10:30pm 10.6 6.9 0.1 48 4.4 E 9 11 5 6 1024.6 - 0.0
28/10:00pm 10.7 7.0 0.2 48 4.5 E 9 13 5 7 1024.7 - 0.0
28/09:30pm 10.0 6.4 0.3 51 4.1 ENE 9 11 5 6 1024.6 - 0.0
28/09:00pm 10.3 6.2 0.1 49 4.3 E 11 11 6 6 1024.3 1023.4 0.0
28/08:30pm 11.1 7.0 -0.4 45 4.8 NE 11 11 6 6 1024.0 - 0.0
28/08:00pm 12.2 8.1 -0.3 42 5.3 ENE 11 15 6 8 1023.6 - 0.0
28/07:30pm 13.6 9.1 -0.4 38 6.0 ENE 13 15 7 8 1023.2 - 0.0
28/07:00pm 14.8 9.9 -0.5 35 6.6 E 15 19 8 10 1022.6 - 0.0
28/06:30pm 15.8 10.1 -0.4 33 7.1 ENE 19 26 10 14 1022.2 - 0.0
28/06:00pm 17.1 11.9 -0.1 31 7.7 ENE 17 22 9 12 1021.8 1020.8 0.0
28/05:30pm 17.9 12.3 0.1 30 8.0 ENE 19 26 10 14 1021.4 - 0.0
28/05:00pm 18.3 13.5 0.0 29 8.3 ENE 15 22 8 12 1021.6 - 0.0
28/04:30pm 18.9 14.9 0.5 29 8.5 ENE 11 19 6 10 1021.4 - 0.0
28/04:00pm 19.1 14.7 0.2 28 8.6 NNE 13 22 7 12 1021.6 - 0.0
28/03:30pm 18.4 12.7 -0.4 28 8.4 ENE 19 28 10 15 1021.9 - 0.0
28/03:00pm 18.9 14.1 0.0 28 8.6 NE 15 22 8 12 1022.2 1021.2 0.0
28/02:30pm 18.8 14.0 0.4 29 8.4 ENE 15 28 8 15 1022.1 - 0.0
28/02:00pm 18.1 13.3 0.3 30 8.1 NNE 15 22 8 12 1022.6 - 0.0
28/01:30pm 17.9 12.8 0.6 31 7.9 N 17 24 9 13 1023.4 - 0.0
28/01:00pm 17.5 12.3 0.2 31 7.8 NE 17 24 9 13 1023.8 - 0.0
28/12:30pm 16.8 11.8 -0.9 30 7.8 NE 15 26 8 14 1024.1 - 0.0
28/12:00pm 16.7 11.0 -0.5 31 7.6 NE 19 26 10 14 1024.6 1023.6 0.0
28/11:30am 15.2 9.5 -0.9 33 7.0 ENE 19 30 10 16 1024.7 - 0.0
28/11:00am 14.6 8.6 -1.9 32 6.9 NE 20 30 11 16 1025.3 - 0.0
28/10:30am 13.9 7.5 -1.7 34 6.5 ENE 22 30 12 16 1025.6 - 0.0
28/10:00am 13.0 5.4 -2.1 35 6.2 ENE 28 39 15 21 1025.6 - 0.0
28/09:30am 12.3 5.9 -1.6 38 5.8 ENE 22 32 12 17 1026.6 - 0.0
28/09:00am 11.1 4.0 -1.6 41 5.2 ENE 26 32 14 17 1025.8 1024.9 0.2
28/08:30am 9.8 3.8 -1.3 46 4.5 E 20 28 11 15 1025.9 - 0.2
28/08:00am 8.5 4.2 -1.6 49 4.0 E 11 15 6 8 1025.8 - 0.2
28/07:30am 7.1 2.4 -2.1 52 3.6 E 13 15 7 8 1025.5 - 0.2
28/07:00am 5.7 1.3 -2.1 57 3.0 E 11 15 6 8 1025.6 - 0.2
28/06:30am 5.2 0.8 -2.6 57 2.9 E 11 11 6 6 1025.3 - 0.2
28/06:00am 5.5 0.7 -2.6 56 3.0 E 13 15 7 8 1025.0 1024.0 0.2
28/05:30am 6.7 1.9 -2.4 52 3.5 E 13 17 7 9 1024.8 - 0.2
28/05:00am 6.0 2.3 -2.6 54 3.3 ENE 7 11 4 6 1025.2 - 0.2
28/04:30am 6.6 2.2 -2.8 51 3.6 E 11 13 6 7 1024.8 - 0.2
28/04:00am 6.4 2.3 -3.0 51 3.5 E 9 13 5 7 1024.8 - 0.2
28/03:30am 6.8 2.3 -2.9 50 3.7 ENE 11 13 6 7 1024.6 - 0.2
28/03:00am 7.1 2.6 -2.9 49 3.8 ENE 11 13 6 7 1024.8 1023.8 0.2
28/02:30am 7.5 3.0 -3.1 47 4.0 ENE 11 15 6 8 1024.8 - 0.2
28/02:00am 7.8 2.6 -2.5 48 4.0 E 15 17 8 9 1024.8 - 0.2
28/01:30am 7.7 2.7 -1.5 52 3.6 E 15 19 8 10 1024.9 - 0.2
28/01:00am 6.3 1.7 -1.1 59 2.9 ENE 13 13 7 7 1025.3 - 0.2
28/12:30am 6.7 2.5 -0.7 59 3.0 NE 11 13 6 7 1025.2 - 0.2
28/12:00am 6.9 3.1 -0.8 58 3.1 NE 9 11 5 6 1025.3 1024.4 0.2

Other Formats:

Comma delimited format used in spreadsheet applications
http://www.bom.gov.au/fwo/IDS60801/IDS60801.94474.axf

JavaScript Object Notation format (JSON) in row-major order
http://www.bom.gov.au/fwo/IDS60801/IDS60801.94474.json